Bellows — WBC8717 — position and weather

sailwx.info

Track history (hours):
 
Tides and Currents Weather Stations Pressure Air Temp Water Temp Dewpoint Dewpoint Depression Visibility Wind Speed Wind Dir Waves Ship Positions

Oceanographic research ship Bellows (USA)

Detailed information on ship capabilities available from University of Delaware's Ocean Information Center.

Owner: FLORIDA, STATE OF, St. Petersburg, FL. More information available from US FCC via Universal Licensing System and Coast Guard Vessel Documentation Center.

Last reported at 2019-Sep-09 13:43 UTC. Time now 2019-Nov-11 22:41 UTC.
Position N 27°02' W 080°04'.
Warning: this ship's position is months out of date.

; draft 2 m.

MMSI: 367146570.

Date/timePositionNaut miles runAvg speedWind from/ knotsBaromVisibWave heightAir tempDewpointWater temp
2019-Sep-09 13:43N 27°02' W 080°04'2 8.6
2019-Sep-09 13:30N 27°00' W 080°03'5 9.1
2019-Sep-09 13:00N 26°56' W 080°02'5 9.6
2019-Sep-09 12:30N 26°51' W 080°00'510.3
2019-Sep-09 12:00N 26°46' W 079°59'6 9.8
2019-Sep-09 11:26N 26°41' W 079°59'4 9.5
2019-Sep-09 11:00N 26°37' W 079°59'14 9.1
2019-Sep-09 09:31N 26°23' W 079°60'0 8.3
2019-Sep-09 09:28N 26°23' W 079°60'4 8.7
2019-Sep-09 09:00N 26°19' W 080°00'4 8.9
2019-Sep-09 08:30N 26°14' W 080°00'5 9.3
2019-Sep-09 08:00N 26°10' W 080°00'5 9.5
2019-Sep-09 07:30N 26°05' W 080°01'5 9.4
2019-Sep-09 07:00N 26°00' W 080°01'5 9.4
2019-Sep-09 06:31N 25°55' W 080°01'5 9.6
2019-Sep-09 06:00N 25°51' W 080°02'510.2
2019-Sep-09 05:30N 25°46' W 080°03'510.1
2019-Sep-09 05:00N 25°41' W 080°03'510.0
2019-Sep-09 04:30N 25°36' W 080°04'5 9.7
2019-Sep-09 04:00N 25°31' W 080°05'5 9.5
2019-Sep-09 03:30N 25°26' W 080°06'  
Track history (hours):
 
Tides and Currents Weather Stations Pressure Air Temp Water Temp Dewpoint Dewpoint Depression Visibility Wind Speed Wind Dir Waves Ship Positions

Oceanographic research ship Bellows (USA)

Detailed information on ship capabilities available from University of Delaware's Ocean Information Center.

Owner: FLORIDA, STATE OF, St. Petersburg, FL. More information available from US FCC via Universal Licensing System and Coast Guard Vessel Documentation Center.

Last reported at 2019-Sep-09 13:43 UTC. Time now 2019-Nov-11 22:41 UTC.
Position N 27°02' W 080°04'.
Warning: this ship's position is months out of date.

; draft 2 m.

MMSI: 367146570.

Date/timePositionNaut miles runAvg speedWind from/ knotsBaromVisibWave heightAir tempDewpointWater temp
2019-Sep-09 13:43N 27°02' W 080°04'2 8.6
2019-Sep-09 13:30N 27°00' W 080°03'5 9.1
2019-Sep-09 13:00N 26°56' W 080°02'5 9.6
2019-Sep-09 12:30N 26°51' W 080°00'510.3
2019-Sep-09 12:00N 26°46' W 079°59'6 9.8
2019-Sep-09 11:26N 26°41' W 079°59'4 9.5
2019-Sep-09 11:00N 26°37' W 079°59'14 9.1
2019-Sep-09 09:31N 26°23' W 079°60'0 8.3
2019-Sep-09 09:28N 26°23' W 079°60'4 8.7
2019-Sep-09 09:00N 26°19' W 080°00'4 8.9
2019-Sep-09 08:30N 26°14' W 080°00'5 9.3
2019-Sep-09 08:00N 26°10' W 080°00'5 9.5
2019-Sep-09 07:30N 26°05' W 080°01'5 9.4
2019-Sep-09 07:00N 26°00' W 080°01'5 9.4
2019-Sep-09 06:31N 25°55' W 080°01'5 9.6
2019-Sep-09 06:00N 25°51' W 080°02'510.2
2019-Sep-09 05:30N 25°46' W 080°03'510.1
2019-Sep-09 05:00N 25°41' W 080°03'510.0
2019-Sep-09 04:30N 25°36' W 080°04'5 9.7
2019-Sep-09 04:00N 25°31' W 080°05'5 9.5
2019-Sep-09 03:30N 25°26' W 080°06'  

Dump ship's entire track history